sensor_id;sensor_type;location;lat;lon;timestamp;temperature;humidity
72114;SHT31;59989;46.220;19.888;2023-04-25T00:01:26;12.28;95.61
72114;SHT31;59989;46.220;19.888;2023-04-25T00:04:29;12.28;95.63
72114;SHT31;59989;46.220;19.888;2023-04-25T00:07:34;12.25;95.55
72114;SHT31;59989;46.220;19.888;2023-04-25T00:10:37;12.23;95.55
72114;SHT31;59989;46.220;19.888;2023-04-25T00:13:39;12.23;95.41
72114;SHT31;59989;46.220;19.888;2023-04-25T00:16:44;12.20;95.38
72114;SHT31;59989;46.220;19.888;2023-04-25T00:19:46;12.17;95.39
72114;SHT31;59989;46.220;19.888;2023-04-25T00:22:50;12.10;95.20
72114;SHT31;59989;46.220;19.888;2023-04-25T00:25:54;12.13;95.20
72114;SHT31;59989;46.220;19.888;2023-04-25T00:28:57;12.06;94.90
72114;SHT31;59989;46.220;19.888;2023-04-25T00:32:01;12.04;94.66
72114;SHT31;59989;46.220;19.888;2023-04-25T00:35:04;12.03;94.62
72114;SHT31;59989;46.220;19.888;2023-04-25T00:38:07;12.01;94.62
72114;SHT31;59989;46.220;19.888;2023-04-25T00:41:10;11.97;94.34
72114;SHT31;59989;46.220;19.888;2023-04-25T00:44:12;11.97;94.34
72114;SHT31;59989;46.220;19.888;2023-04-25T00:47:15;11.91;94.05
72114;SHT31;59989;46.220;19.888;2023-04-25T00:50:18;11.85;93.66
72114;SHT31;59989;46.220;19.888;2023-04-25T00:53:22;11.85;93.69
72114;SHT31;59989;46.220;19.888;2023-04-25T00:56:25;11.80;93.64
72114;SHT31;59989;46.220;19.888;2023-04-25T00:59:28;11.79;93.57
72114;SHT31;59989;46.220;19.888;2023-04-25T01:02:33;11.79;93.63
72114;SHT31;59989;46.220;19.888;2023-04-25T01:05:36;11.75;93.85
72114;SHT31;59989;46.220;19.888;2023-04-25T01:08:39;11.73;93.85
72114;SHT31;59989;46.220;19.888;2023-04-25T01:11:41;11.72;93.52
72114;SHT31;59989;46.220;19.888;2023-04-25T01:14:44;11.63;93.28
72114;SHT31;59989;46.220;19.888;2023-04-25T01:17:46;11.62;93.36
72114;SHT31;59989;46.220;19.888;2023-04-25T01:20:52;11.56;92.83
72114;SHT31;59989;46.220;19.888;2023-04-25T01:23:56;11.54;92.96
72114;SHT31;59989;46.220;19.888;2023-04-25T01:27:00;11.56;93.42
72114;SHT31;59989;46.220;19.888;2023-04-25T01:30:03;11.55;93.52
72114;SHT31;59989;46.220;19.888;2023-04-25T01:33:08;11.52;93.40
72114;SHT31;59989;46.220;19.888;2023-04-25T01:36:10;11.49;93.11
72114;SHT31;59989;46.220;19.888;2023-04-25T01:39:13;11.52;93.64
72114;SHT31;59989;46.220;19.888;2023-04-25T01:42:16;11.48;93.64
72114;SHT31;59989;46.220;19.888;2023-04-25T01:45:18;11.49;93.56
72114;SHT31;59989;46.220;19.888;2023-04-25T01:48:21;11.52;93.65
72114;SHT31;59989;46.220;19.888;2023-04-25T01:51:24;11.49;93.76
72114;SHT31;59989;46.220;19.888;2023-04-25T01:54:26;11.45;93.54
72114;SHT31;59989;46.220;19.888;2023-04-25T01:57:30;11.46;93.54
72114;SHT31;59989;46.220;19.888;2023-04-25T02:00:38;11.51;93.96
72114;SHT31;59989;46.220;19.888;2023-04-25T02:03:41;11.42;93.47
72114;SHT31;59989;46.220;19.888;2023-04-25T02:06:52;11.42;93.31
72114;SHT31;59989;46.220;19.888;2023-04-25T02:09:56;11.43;93.56
72114;SHT31;59989;46.220;19.888;2023-04-25T02:13:01;11.42;93.61
72114;SHT31;59989;46.220;19.888;2023-04-25T02:16:24;11.35;93.01
72114;SHT31;59989;46.220;19.888;2023-04-25T02:19:27;11.36;93.10
72114;SHT31;59989;46.220;19.888;2023-04-25T02:22:30;11.36;93.33
72114;SHT31;59989;46.220;19.888;2023-04-25T02:25:33;11.31;93.03
72114;SHT31;59989;46.220;19.888;2023-04-25T02:28:36;11.29;93.08
72114;SHT31;59989;46.220;19.888;2023-04-25T02:31:39;11.27;93.43
72114;SHT31;59989;46.220;19.888;2023-04-25T02:34:42;11.25;93.47
72114;SHT31;59989;46.220;19.888;2023-04-25T02:37:44;11.21;93.35
72114;SHT31;59989;46.220;19.888;2023-04-25T02:40:48;11.19;93.60
72114;SHT31;59989;46.220;19.888;2023-04-25T02:43:51;11.11;93.14
72114;SHT31;59989;46.220;19.888;2023-04-25T02:46:53;11.08;93.10
72114;SHT31;59989;46.220;19.888;2023-04-25T02:49:59;11.07;92.97
72114;SHT31;59989;46.220;19.888;2023-04-25T02:53:02;11.06;93.05
72114;SHT31;59989;46.220;19.888;2023-04-25T02:56:10;11.01;93.09
72114;SHT31;59989;46.220;19.888;2023-04-25T02:59:13;10.98;93.22
72114;SHT31;59989;46.220;19.888;2023-04-25T03:02:16;11.00;93.33
72114;SHT31;59989;46.220;19.888;2023-04-25T03:05:19;10.93;93.35
72114;SHT31;59989;46.220;19.888;2023-04-25T03:08:22;10.88;93.16
72114;SHT31;59989;46.220;19.888;2023-04-25T03:11:25;10.88;92.88
72114;SHT31;59989;46.220;19.888;2023-04-25T03:14:28;10.83;92.99
72114;SHT31;59989;46.220;19.888;2023-04-25T03:17:30;10.83;92.80
72114;SHT31;59989;46.220;19.888;2023-04-25T03:20:33;10.81;93.00
72114;SHT31;59989;46.220;19.888;2023-04-25T03:23:38;10.79;93.17
72114;SHT31;59989;46.220;19.888;2023-04-25T03:26:42;10.77;93.07
72114;SHT31;59989;46.220;19.888;2023-04-25T03:29:45;10.71;92.88
72114;SHT31;59989;46.220;19.888;2023-04-25T03:32:48;10.70;92.98
72114;SHT31;59989;46.220;19.888;2023-04-25T03:35:52;10.71;93.46
72114;SHT31;59989;46.220;19.888;2023-04-25T03:38:55;10.66;93.38
72114;SHT31;59989;46.220;19.888;2023-04-25T03:41:58;10.64;93.22
72114;SHT31;59989;46.220;19.888;2023-04-25T03:45:03;10.60;93.10
72114;SHT31;59989;46.220;19.888;2023-04-25T03:48:06;10.61;93.26
72114;SHT31;59989;46.220;19.888;2023-04-25T03:51:09;10.56;93.08
72114;SHT31;59989;46.220;19.888;2023-04-25T03:54:16;10.56;93.20
72114;SHT31;59989;46.220;19.888;2023-04-25T03:57:39;10.55;92.93
72114;SHT31;59989;46.220;19.888;2023-04-25T04:00:42;10.59;93.50
72114;SHT31;59989;46.220;19.888;2023-04-25T04:03:45;10.56;93.33
72114;SHT31;59989;46.220;19.888;2023-04-25T04:06:48;10.50;92.20
72114;SHT31;59989;46.220;19.888;2023-04-25T04:09:56;10.50;92.48
72114;SHT31;59989;46.220;19.888;2023-04-25T04:13:04;10.49;92.50
72114;SHT31;59989;46.220;19.888;2023-04-25T04:16:07;10.49;92.82
72114;SHT31;59989;46.220;19.888;2023-04-25T04:19:10;10.50;92.68
72114;SHT31;59989;46.220;19.888;2023-04-25T04:22:17;10.48;92.15
72114;SHT31;59989;46.220;19.888;2023-04-25T04:25:20;10.46;92.34
72114;SHT31;59989;46.220;19.888;2023-04-25T04:28:43;10.40;91.78
72114;SHT31;59989;46.220;19.888;2023-04-25T04:32:09;10.42;91.77
72114;SHT31;59989;46.220;19.888;2023-04-25T04:35:12;10.45;92.08
72114;SHT31;59989;46.220;19.888;2023-04-25T04:38:15;10.40;91.63
72114;SHT31;59989;46.220;19.888;2023-04-25T04:41:18;10.42;92.00
72114;SHT31;59989;46.220;19.888;2023-04-25T04:44:30;10.35;91.02
72114;SHT31;59989;46.220;19.888;2023-04-25T04:47:45;10.35;91.61
72114;SHT31;59989;46.220;19.888;2023-04-25T04:50:52;10.35;91.88
72114;SHT31;59989;46.220;19.888;2023-04-25T04:54:30;10.32;91.76
72114;SHT31;59989;46.220;19.888;2023-04-25T04:57:47;10.28;91.22
72114;SHT31;59989;46.220;19.888;2023-04-25T05:01:13;10.26;91.73
72114;SHT31;59989;46.220;19.888;2023-04-25T05:04:38;10.22;91.88
72114;SHT31;59989;46.220;19.888;2023-04-25T05:08:07;10.19;91.32
72114;SHT31;59989;46.220;19.888;2023-04-25T05:11:28;10.18;91.15
72114;SHT31;59989;46.220;19.888;2023-04-25T05:14:49;10.22;91.28
72114;SHT31;59989;46.220;19.888;2023-04-25T05:18:10;10.28;91.30
72114;SHT31;59989;46.220;19.888;2023-04-25T05:21:21;10.29;91.11
72114;SHT31;59989;46.220;19.888;2023-04-25T05:24:53;10.28;90.75
72114;SHT31;59989;46.220;19.888;2023-04-25T05:28:16;10.26;90.96
72114;SHT31;59989;46.220;19.888;2023-04-25T05:31:54;10.26;91.41
72114;SHT31;59989;46.220;19.888;2023-04-25T05:34:57;10.31;90.86
72114;SHT31;59989;46.220;19.888;2023-04-25T05:38:12;10.32;90.90
72114;SHT31;59989;46.220;19.888;2023-04-25T05:41:34;10.33;90.76
72114;SHT31;59989;46.220;19.888;2023-04-25T05:44:57;10.31;90.37
72114;SHT31;59989;46.220;19.888;2023-04-25T05:48:09;10.33;90.46
72114;SHT31;59989;46.220;19.888;2023-04-25T05:51:38;10.39;90.80
72114;SHT31;59989;46.220;19.888;2023-04-25T05:55:01;10.36;90.02
72114;SHT31;59989;46.220;19.888;2023-04-25T05:58:06;10.35;89.59
72114;SHT31;59989;46.220;19.888;2023-04-25T06:01:09;10.45;90.21
72114;SHT31;59989;46.220;19.888;2023-04-25T06:04:13;10.52;89.81
72114;SHT31;59989;46.220;19.888;2023-04-25T06:07:16;10.63;90.17
72114;SHT31;59989;46.220;19.888;2023-04-25T06:10:19;10.66;90.01
72114;SHT31;59989;46.220;19.888;2023-04-25T06:13:22;10.76;89.53
72114;SHT31;59989;46.220;19.888;2023-04-25T06:16:25;10.87;90.37
72114;SHT31;59989;46.220;19.888;2023-04-25T06:19:28;10.94;90.17
72114;SHT31;59989;46.220;19.888;2023-04-25T06:22:31;11.03;89.71
72114;SHT31;59989;46.220;19.888;2023-04-25T06:25:34;11.08;88.84
72114;SHT31;59989;46.220;19.888;2023-04-25T06:28:37;11.04;89.31
72114;SHT31;59989;46.220;19.888;2023-04-25T06:31:40;11.04;89.29
72114;SHT31;59989;46.220;19.888;2023-04-25T06:34:43;11.10;89.23
72114;SHT31;59989;46.220;19.888;2023-04-25T06:37:46;11.11;88.74
72114;SHT31;59989;46.220;19.888;2023-04-25T06:40:48;11.11;88.43
72114;SHT31;59989;46.220;19.888;2023-04-25T06:43:53;11.25;88.45
72114;SHT31;59989;46.220;19.888;2023-04-25T06:47:08;11.32;88.96
72114;SHT31;59989;46.220;19.888;2023-04-25T06:50:11;11.29;88.25
72114;SHT31;59989;46.220;19.888;2023-04-25T06:53:14;11.25;88.25
72114;SHT31;59989;46.220;19.888;2023-04-25T06:56:19;11.35;88.08
72114;SHT31;59989;46.220;19.888;2023-04-25T06:59:46;11.27;87.76
72114;SHT31;59989;46.220;19.888;2023-04-25T07:02:49;11.24;88.50
72114;SHT31;59989;46.220;19.888;2023-04-25T07:05:52;11.43;89.19
72114;SHT31;59989;46.220;19.888;2023-04-25T07:08:55;11.43;88.93
72114;SHT31;59989;46.220;19.888;2023-04-25T07:11:59;11.52;89.27
72114;SHT31;59989;46.220;19.888;2023-04-25T07:15:04;11.63;88.85
72114;SHT31;59989;46.220;19.888;2023-04-25T07:18:09;11.48;87.78
72114;SHT31;59989;46.220;19.888;2023-04-25T07:21:13;11.58;88.15
72114;SHT31;59989;46.220;19.888;2023-04-25T07:24:18;11.77;87.84
72114;SHT31;59989;46.220;19.888;2023-04-25T07:28:47;11.98;87.09
72114;SHT31;59989;46.220;19.888;2023-04-25T07:32:25;12.20;87.00
72114;SHT31;59989;46.220;19.888;2023-04-25T07:35:41;12.49;86.36
72114;SHT31;59989;46.220;19.888;2023-04-25T07:38:50;12.58;85.92
72114;SHT31;59989;46.220;19.888;2023-04-25T07:41:53;12.68;85.36
72114;SHT31;59989;46.220;19.888;2023-04-25T07:45:02;12.56;84.48
72114;SHT31;59989;46.220;19.888;2023-04-25T07:48:05;12.44;84.48
72114;SHT31;59989;46.220;19.888;2023-04-25T07:51:11;12.56;83.79
72114;SHT31;59989;46.220;19.888;2023-04-25T07:54:15;12.78;83.26
72114;SHT31;59989;46.220;19.888;2023-04-25T07:57:26;12.61;81.25
72114;SHT31;59989;46.220;19.888;2023-04-25T08:00:31;12.72;83.02
72114;SHT31;59989;46.220;19.888;2023-04-25T08:04:10;12.97;82.26
72114;SHT31;59989;46.220;19.888;2023-04-25T08:07:37;13.12;82.42
72114;SHT31;59989;46.220;19.888;2023-04-25T08:10:41;12.95;81.47
72114;SHT31;59989;46.220;19.888;2023-04-25T08:13:49;12.71;80.60
72114;SHT31;59989;46.220;19.888;2023-04-25T08:17:43;13.13;82.44
72114;SHT31;59989;46.220;19.888;2023-04-25T08:20:47;13.21;81.04
72114;SHT31;59989;46.220;19.888;2023-04-25T08:31:57;13.65;79.26
72114;SHT31;59989;46.220;19.888;2023-04-25T08:35:00;13.70;78.34
72114;SHT31;59989;46.220;19.888;2023-04-25T08:38:02;13.81;78.60
72114;SHT31;59989;46.220;19.888;2023-04-25T08:41:06;13.77;77.56
72114;SHT31;59989;46.220;19.888;2023-04-25T08:44:10;13.67;75.77
72114;SHT31;59989;46.220;19.888;2023-04-25T08:47:13;13.40;75.07
72114;SHT31;59989;46.220;19.888;2023-04-25T08:50:22;13.77;77.56
72114;SHT31;59989;46.220;19.888;2023-04-25T08:53:28;13.91;75.07
72114;SHT31;59989;46.220;19.888;2023-04-25T08:56:34;13.95;75.66
72114;SHT31;59989;46.220;19.888;2023-04-25T08:59:39;14.28;75.68
72114;SHT31;59989;46.220;19.888;2023-04-25T09:02:43;14.39;73.89
72114;SHT31;59989;46.220;19.888;2023-04-25T09:05:46;14.12;70.82
72114;SHT31;59989;46.220;19.888;2023-04-25T09:08:50;14.59;74.05
72114;SHT31;59989;46.220;19.888;2023-04-25T09:11:54;14.73;71.54
72114;SHT31;59989;46.220;19.888;2023-04-25T09:15:10;14.44;69.32
72114;SHT31;59989;46.220;19.888;2023-04-25T09:18:37;14.77;72.85
72114;SHT31;59989;46.220;19.888;2023-04-25T09:21:40;14.60;72.94
72114;SHT31;59989;46.220;19.888;2023-04-25T09:24:44;14.60;73.31
72114;SHT31;59989;46.220;19.888;2023-04-25T09:27:53;14.74;71.33
72114;SHT31;59989;46.220;19.888;2023-04-25T09:31:01;14.76;71.83
72114;SHT31;59989;46.220;19.888;2023-04-25T09:34:17;14.70;70.88
72114;SHT31;59989;46.220;19.888;2023-04-25T09:37:29;14.70;71.65
72114;SHT31;59989;46.220;19.888;2023-04-25T09:41:04;14.77;69.79
72114;SHT31;59989;46.220;19.888;2023-04-25T09:44:15;14.85;70.05
72114;SHT31;59989;46.220;19.888;2023-04-25T09:47:20;14.60;68.02
72114;SHT31;59989;46.220;19.888;2023-04-25T09:50:24;14.70;68.27
72114;SHT31;59989;46.220;19.888;2023-04-25T09:53:41;14.98;68.75
72114;SHT31;59989;46.220;19.888;2023-04-25T09:56:53;14.97;67.56
72114;SHT31;59989;46.220;19.888;2023-04-25T09:59:56;14.89;69.00
72114;SHT31;59989;46.220;19.888;2023-04-25T10:03:02;15.05;68.86
72114;SHT31;59989;46.220;19.888;2023-04-25T10:06:28;14.98;67.85
72114;SHT31;59989;46.220;19.888;2023-04-25T10:09:32;15.24;68.96
72114;SHT31;59989;46.220;19.888;2023-04-25T10:12:37;14.97;66.99
72114;SHT31;59989;46.220;19.888;2023-04-25T10:15:42;15.35;66.78
72114;SHT31;59989;46.220;19.888;2023-04-25T10:18:45;15.32;65.28
72114;SHT31;59989;46.220;19.888;2023-04-25T10:21:52;15.57;64.08
72114;SHT31;59989;46.220;19.888;2023-04-25T10:24:57;15.82;64.51
72114;SHT31;59989;46.220;19.888;2023-04-25T10:28:00;16.12;64.07
72114;SHT31;59989;46.220;19.888;2023-04-25T10:31:08;16.66;63.35
72114;SHT31;59989;46.220;19.888;2023-04-25T10:34:10;15.97;60.04
72114;SHT31;59989;46.220;19.888;2023-04-25T10:37:13;16.11;63.86
72114;SHT31;59989;46.220;19.888;2023-04-25T10:40:21;16.89;59.28
72114;SHT31;59989;46.220;19.888;2023-04-25T10:43:38;16.26;58.65
72114;SHT31;59989;46.220;19.888;2023-04-25T10:46:41;16.22;59.57
72114;SHT31;59989;46.220;19.888;2023-04-25T10:49:43;16.56;60.45
72114;SHT31;59989;46.220;19.888;2023-04-25T10:52:47;16.15;61.96
72114;SHT31;59989;46.220;19.888;2023-04-25T10:55:49;15.98;62.92
72114;SHT31;59989;46.220;19.888;2023-04-25T10:59:19;16.10;61.54
72114;SHT31;59989;46.220;19.888;2023-04-25T11:02:26;16.28;63.06
72114;SHT31;59989;46.220;19.888;2023-04-25T11:05:35;16.05;62.20
72114;SHT31;59989;46.220;19.888;2023-04-25T11:08:52;16.05;63.44
72114;SHT31;59989;46.220;19.888;2023-04-25T11:11:57;16.28;61.34
72114;SHT31;59989;46.220;19.888;2023-04-25T11:15:06;16.53;62.44
72114;SHT31;59989;46.220;19.888;2023-04-25T11:18:09;16.52;61.06
72114;SHT31;59989;46.220;19.888;2023-04-25T11:21:13;16.14;62.64
72114;SHT31;59989;46.220;19.888;2023-04-25T11:24:16;15.63;63.67
72114;SHT31;59989;46.220;19.888;2023-04-25T11:27:20;15.45;62.93
72114;SHT31;59989;46.220;19.888;2023-04-25T11:30:25;15.32;63.75
72114;SHT31;59989;46.220;19.888;2023-04-25T11:33:28;15.19;64.00
72114;SHT31;59989;46.220;19.888;2023-04-25T11:36:30;15.45;63.91
72114;SHT31;59989;46.220;19.888;2023-04-25T11:39:34;15.87;63.28
72114;SHT31;59989;46.220;19.888;2023-04-25T11:42:44;17.09;60.79
72114;SHT31;59989;46.220;19.888;2023-04-25T11:45:50;16.49;60.62
72114;SHT31;59989;46.220;19.888;2023-04-25T11:48:55;16.47;60.44
72114;SHT31;59989;46.220;19.888;2023-04-25T11:51:58;16.48;60.51
72114;SHT31;59989;46.220;19.888;2023-04-25T11:55:00;16.65;60.88
72114;SHT31;59989;46.220;19.888;2023-04-25T11:58:04;16.38;60.44
72114;SHT31;59989;46.220;19.888;2023-04-25T12:01:08;15.93;59.97
72114;SHT31;59989;46.220;19.888;2023-04-25T12:04:16;16.70;56.77
72114;SHT31;59989;46.220;19.888;2023-04-25T12:07:19;18.34;54.51
72114;SHT31;59989;46.220;19.888;2023-04-25T12:10:25;17.59;53.93
72114;SHT31;59989;46.220;19.888;2023-04-25T12:13:28;16.66;57.53
72114;SHT31;59989;46.220;19.888;2023-04-25T12:16:43;17.51;53.99
72114;SHT31;59989;46.220;19.888;2023-04-25T12:19:47;19.24;51.84
72114;SHT31;59989;46.220;19.888;2023-04-25T12:22:50;19.29;50.11
72114;SHT31;59989;46.220;19.888;2023-04-25T12:25:53;18.23;51.64
72114;SHT31;59989;46.220;19.888;2023-04-25T12:28:56;17.34;53.97
72114;SHT31;59989;46.220;19.888;2023-04-25T12:31:59;16.69;55.64
72114;SHT31;59989;46.220;19.888;2023-04-25T12:35:05;16.72;55.96
72114;SHT31;59989;46.220;19.888;2023-04-25T12:38:08;17.49;54.94
72114;SHT31;59989;46.220;19.888;2023-04-25T12:41:11;17.82;53.63
72114;SHT31;59989;46.220;19.888;2023-04-25T12:44:14;17.86;53.39
72114;SHT31;59989;46.220;19.888;2023-04-25T12:47:17;16.90;57.17
72114;SHT31;59989;46.220;19.888;2023-04-25T12:50:19;16.72;57.96
72114;SHT31;59989;46.220;19.888;2023-04-25T12:53:22;16.79;57.36
72114;SHT31;59989;46.220;19.888;2023-04-25T12:56:27;17.02;56.17
72114;SHT31;59989;46.220;19.888;2023-04-25T12:59:29;16.35;59.56
72114;SHT31;59989;46.220;19.888;2023-04-25T13:02:32;16.15;60.42
72114;SHT31;59989;46.220;19.888;2023-04-25T13:05:35;16.21;61.65
72114;SHT31;59989;46.220;19.888;2023-04-25T13:08:38;15.77;60.02
72114;SHT31;59989;46.220;19.888;2023-04-25T13:11:41;15.79;59.92
72114;SHT31;59989;46.220;19.888;2023-04-25T13:14:48;16.04;58.96
72114;SHT31;59989;46.220;19.888;2023-04-25T13:17:51;16.59;56.93
72114;SHT31;59989;46.220;19.888;2023-04-25T13:20:53;16.75;57.40
72114;SHT31;59989;46.220;19.888;2023-04-25T13:23:56;16.83;57.67
72114;SHT31;59989;46.220;19.888;2023-04-25T13:26:59;18.34;53.81
72114;SHT31;59989;46.220;19.888;2023-04-25T13:30:03;19.81;47.32
72114;SHT31;59989;46.220;19.888;2023-04-25T13:33:09;21.15;45.05
72114;SHT31;59989;46.220;19.888;2023-04-25T13:36:12;20.69;43.58
72114;SHT31;59989;46.220;19.888;2023-04-25T13:39:15;20.26;44.56
72114;SHT31;59989;46.220;19.888;2023-04-25T13:42:17;20.97;43.20
72114;SHT31;59989;46.220;19.888;2023-04-25T13:45:20;20.60;44.18
72114;SHT31;59989;46.220;19.888;2023-04-25T13:48:24;21.25;42.79
72114;SHT31;59989;46.220;19.888;2023-04-25T13:51:26;21.51;43.31
72114;SHT31;59989;46.220;19.888;2023-04-25T13:54:29;21.18;41.68
72114;SHT31;59989;46.220;19.888;2023-04-25T13:57:32;23.08;39.97
72114;SHT31;59989;46.220;19.888;2023-04-25T14:00:36;23.29;39.37
72114;SHT31;59989;46.220;19.888;2023-04-25T14:03:41;23.45;38.54
72114;SHT31;59989;46.220;19.888;2023-04-25T14:06:44;22.18;41.82
72114;SHT31;59989;46.220;19.888;2023-04-25T14:09:47;19.53;45.80
72114;SHT31;59989;46.220;19.888;2023-04-25T14:12:50;17.52;48.80
72114;SHT31;59989;46.220;19.888;2023-04-25T14:15:53;17.18;50.17
72114;SHT31;59989;46.220;19.888;2023-04-25T14:18:55;17.67;50.97
72114;SHT31;59989;46.220;19.888;2023-04-25T14:21:58;21.23;44.54
72114;SHT31;59989;46.220;19.888;2023-04-25T14:25:00;19.06;46.37
72114;SHT31;59989;46.220;19.888;2023-04-25T14:28:03;18.02;49.05
72114;SHT31;59989;46.220;19.888;2023-04-25T14:31:06;17.34;50.91
72114;SHT31;59989;46.220;19.888;2023-04-25T14:34:09;19.75;43.27
72114;SHT31;59989;46.220;19.888;2023-04-25T14:37:11;21.89;39.34
72114;SHT31;59989;46.220;19.888;2023-04-25T14:40:14;23.78;35.96
72114;SHT31;59989;46.220;19.888;2023-04-25T14:43:18;23.51;34.45
72114;SHT31;59989;46.220;19.888;2023-04-25T14:46:20;22.71;36.89
72114;SHT31;59989;46.220;19.888;2023-04-25T14:49:24;23.19;36.85
72114;SHT31;59989;46.220;19.888;2023-04-25T14:52:27;22.87;35.62
72114;SHT31;59989;46.220;19.888;2023-04-25T14:55:30;21.38;36.46
72114;SHT31;59989;46.220;19.888;2023-04-25T14:58:33;20.45;37.65
72114;SHT31;59989;46.220;19.888;2023-04-25T15:01:35;20.35;38.12
72114;SHT31;59989;46.220;19.888;2023-04-25T15:04:39;20.80;39.61
72114;SHT31;59989;46.220;19.888;2023-04-25T15:07:42;21.54;36.22
72114;SHT31;59989;46.220;19.888;2023-04-25T15:10:46;22.81;35.32
72114;SHT31;59989;46.220;19.888;2023-04-25T15:13:48;22.61;33.58
72114;SHT31;59989;46.220;19.888;2023-04-25T15:16:51;22.69;33.02
72114;SHT31;59989;46.220;19.888;2023-04-25T15:19:54;22.16;33.78
72114;SHT31;59989;46.220;19.888;2023-04-25T15:22:57;21.75;35.99
72114;SHT31;59989;46.220;19.888;2023-04-25T15:26:00;21.04;35.82
72114;SHT31;59989;46.220;19.888;2023-04-25T15:29:03;21.08;35.55
72114;SHT31;59989;46.220;19.888;2023-04-25T15:32:08;20.83;35.82
72114;SHT31;59989;46.220;19.888;2023-04-25T15:35:11;20.90;35.60
72114;SHT31;59989;46.220;19.888;2023-04-25T15:38:14;20.45;36.07
72114;SHT31;59989;46.220;19.888;2023-04-25T15:41:19;20.32;36.79
72114;SHT31;59989;46.220;19.888;2023-04-25T15:44:21;18.68;40.19
72114;SHT31;59989;46.220;19.888;2023-04-25T15:47:24;17.57;42.21
72114;SHT31;59989;46.220;19.888;2023-04-25T15:50:27;16.73;41.93
72114;SHT31;59989;46.220;19.888;2023-04-25T15:53:29;16.51;43.46
72114;SHT31;59989;46.220;19.888;2023-04-25T15:56:32;16.33;43.81
72114;SHT31;59989;46.220;19.888;2023-04-25T15:59:34;16.29;43.97
72114;SHT31;59989;46.220;19.888;2023-04-25T16:02:38;16.14;44.06
72114;SHT31;59989;46.220;19.888;2023-04-25T16:05:42;16.12;43.70
72114;SHT31;59989;46.220;19.888;2023-04-25T16:08:45;16.10;44.40
72114;SHT31;59989;46.220;19.888;2023-04-25T16:11:47;16.05;44.17
72114;SHT31;59989;46.220;19.888;2023-04-25T16:14:50;16.00;44.98
72114;SHT31;59989;46.220;19.888;2023-04-25T16:17:53;15.90;43.18
72114;SHT31;59989;46.220;19.888;2023-04-25T16:20:55;15.83;43.52
72114;SHT31;59989;46.220;19.888;2023-04-25T16:23:58;15.70;45.32
72114;SHT31;59989;46.220;19.888;2023-04-25T16:27:01;15.57;44.79
72114;SHT31;59989;46.220;19.888;2023-04-25T16:30:07;15.43;45.77
72114;SHT31;59989;46.220;19.888;2023-04-25T16:33:11;15.36;46.44
72114;SHT31;59989;46.220;19.888;2023-04-25T16:36:14;15.31;45.99
72114;SHT31;59989;46.220;19.888;2023-04-25T16:39:16;15.26;46.76
72114;SHT31;59989;46.220;19.888;2023-04-25T16:42:19;15.24;46.34
72114;SHT31;59989;46.220;19.888;2023-04-25T16:45:21;15.24;46.76
72114;SHT31;59989;46.220;19.888;2023-04-25T16:48:25;15.24;46.17
72114;SHT31;59989;46.220;19.888;2023-04-25T16:51:28;15.19;46.67
72114;SHT31;59989;46.220;19.888;2023-04-25T16:54:31;15.11;48.04
72114;SHT31;59989;46.220;19.888;2023-04-25T16:57:34;15.05;48.48
72114;SHT31;59989;46.220;19.888;2023-04-25T17:00:38;14.99;48.59
72114;SHT31;59989;46.220;19.888;2023-04-25T17:03:46;14.98;48.68
72114;SHT31;59989;46.220;19.888;2023-04-25T17:06:49;14.88;48.22
72114;SHT31;59989;46.220;19.888;2023-04-25T17:09:51;14.76;49.44
72114;SHT31;59989;46.220;19.888;2023-04-25T17:12:54;14.68;49.98
72114;SHT31;59989;46.220;19.888;2023-04-25T17:15:58;14.76;50.47
72114;SHT31;59989;46.220;19.888;2023-04-25T17:19:01;14.60;50.86
72114;SHT31;59989;46.220;19.888;2023-04-25T17:22:04;14.32;51.69
72114;SHT31;59989;46.220;19.888;2023-04-25T17:25:08;14.16;53.99
72114;SHT31;59989;46.220;19.888;2023-04-25T17:28:11;13.98;53.25
72114;SHT31;59989;46.220;19.888;2023-04-25T17:31:15;13.88;53.41
72114;SHT31;59989;46.220;19.888;2023-04-25T17:34:18;13.74;54.14
72114;SHT31;59989;46.220;19.888;2023-04-25T17:37:22;13.57;55.07
72114;SHT31;59989;46.220;19.888;2023-04-25T17:40:28;13.39;56.06
72114;SHT31;59989;46.220;19.888;2023-04-25T17:43:30;13.24;56.95
72114;SHT31;59989;46.220;19.888;2023-04-25T17:46:34;13.09;58.51
72114;SHT31;59989;46.220;19.888;2023-04-25T17:49:37;12.95;57.64
72114;SHT31;59989;46.220;19.888;2023-04-25T17:52:41;12.81;59.90
72114;SHT31;59989;46.220;19.888;2023-04-25T17:55:46;12.65;60.27
72114;SHT31;59989;46.220;19.888;2023-04-25T17:58:51;12.55;60.86
72114;SHT31;59989;46.220;19.888;2023-04-25T18:01:55;12.46;61.00
72114;SHT31;59989;46.220;19.888;2023-04-25T18:05:01;12.34;61.12
72114;SHT31;59989;46.220;19.888;2023-04-25T18:08:10;12.28;62.33
72114;SHT31;59989;46.220;19.888;2023-04-25T18:11:14;12.18;62.60
72114;SHT31;59989;46.220;19.888;2023-04-25T18:14:16;12.14;62.39
72114;SHT31;59989;46.220;19.888;2023-04-25T18:17:19;12.14;62.81
72114;SHT31;59989;46.220;19.888;2023-04-25T18:20:26;12.13;62.30
72114;SHT31;59989;46.220;19.888;2023-04-25T18:23:30;12.08;62.99
72114;SHT31;59989;46.220;19.888;2023-04-25T18:26:35;12.06;62.68
72114;SHT31;59989;46.220;19.888;2023-04-25T18:29:38;12.04;63.00
72114;SHT31;59989;46.220;19.888;2023-04-25T18:32:41;11.94;63.66
72114;SHT31;59989;46.220;19.888;2023-04-25T18:35:44;11.87;63.29
72114;SHT31;59989;46.220;19.888;2023-04-25T18:38:59;11.76;63.81
72114;SHT31;59989;46.220;19.888;2023-04-25T18:42:23;11.73;63.96
72114;SHT31;59989;46.220;19.888;2023-04-25T18:45:26;11.73;63.05
72114;SHT31;59989;46.220;19.888;2023-04-25T18:48:29;11.75;62.30
72114;SHT31;59989;46.220;19.888;2023-04-25T18:51:32;11.70;63.51
72114;SHT31;59989;46.220;19.888;2023-04-25T18:54:35;11.70;63.02
72114;SHT31;59989;46.220;19.888;2023-04-25T18:57:38;11.66;62.96
72114;SHT31;59989;46.220;19.888;2023-04-25T19:00:41;11.62;63.83
72114;SHT31;59989;46.220;19.888;2023-04-25T19:03:44;11.55;63.82
72114;SHT31;59989;46.220;19.888;2023-04-25T19:06:47;11.48;64.39
72114;SHT31;59989;46.220;19.888;2023-04-25T19:09:53;11.35;64.86
72114;SHT31;59989;46.220;19.888;2023-04-25T19:12:57;11.28;64.99
72114;SHT31;59989;46.220;19.888;2023-04-25T19:16:01;11.06;66.71
72114;SHT31;59989;46.220;19.888;2023-04-25T19:19:05;10.87;68.27
72114;SHT31;59989;46.220;19.888;2023-04-25T19:22:09;10.70;68.21
72114;SHT31;59989;46.220;19.888;2023-04-25T19:25:13;10.50;68.10